sensor_id;sensor_type;location;lat;lon;timestamp;temperature;humidity
38020;DHT22;23829;51.350;17.286;2023-04-29T00:01:52;25.00;34.10
38020;DHT22;23829;51.350;17.286;2023-04-29T00:04:24;25.10;34.00
38020;DHT22;23829;51.350;17.286;2023-04-29T00:06:51;25.10;33.80
38020;DHT22;23829;51.350;17.286;2023-04-29T00:09:17;25.10;33.80
38020;DHT22;23829;51.350;17.286;2023-04-29T00:11:43;25.10;33.80
38020;DHT22;23829;51.350;17.286;2023-04-29T00:14:12;25.00;34.00
38020;DHT22;23829;51.350;17.286;2023-04-29T00:16:38;25.00;33.90
38020;DHT22;23829;51.350;17.286;2023-04-29T00:19:05;25.10;33.80
38020;DHT22;23829;51.350;17.286;2023-04-29T00:21:32;25.00;33.80
38020;DHT22;23829;51.350;17.286;2023-04-29T00:23:58;25.00;33.70
38020;DHT22;23829;51.350;17.286;2023-04-29T00:26:25;25.20;33.90
38020;DHT22;23829;51.350;17.286;2023-04-29T00:28:52;25.00;33.90
38020;DHT22;23829;51.350;17.286;2023-04-29T00:31:18;24.80;34.10
38020;DHT22;23829;51.350;17.286;2023-04-29T00:33:45;25.00;33.90
38020;DHT22;23829;51.350;17.286;2023-04-29T00:36:11;24.70;34.30
38020;DHT22;23829;51.350;17.286;2023-04-29T00:38:37;24.70;34.40
38020;DHT22;23829;51.350;17.286;2023-04-29T00:41:04;24.50;34.70
38020;DHT22;23829;51.350;17.286;2023-04-29T00:43:31;24.50;34.80
38020;DHT22;23829;51.350;17.286;2023-04-29T00:45:57;24.50;34.80
38020;DHT22;23829;51.350;17.286;2023-04-29T00:48:25;24.40;35.00
38020;DHT22;23829;51.350;17.286;2023-04-29T00:50:52;24.60;34.70
38020;DHT22;23829;51.350;17.286;2023-04-29T00:53:19;24.50;34.90
38020;DHT22;23829;51.350;17.286;2023-04-29T00:55:49;24.70;34.60
38020;DHT22;23829;51.350;17.286;2023-04-29T00:58:17;24.80;34.20
38020;DHT22;23829;51.350;17.286;2023-04-29T01:00:45;25.00;34.00
38020;DHT22;23829;51.350;17.286;2023-04-29T01:03:12;25.10;33.80
38020;DHT22;23829;51.350;17.286;2023-04-29T01:05:39;25.30;33.70
38020;DHT22;23829;51.350;17.286;2023-04-29T01:08:13;25.30;33.60
38020;DHT22;23829;51.350;17.286;2023-04-29T01:11:02;25.30;33.50
38020;DHT22;23829;51.350;17.286;2023-04-29T01:13:42;25.40;33.50
38020;DHT22;23829;51.350;17.286;2023-04-29T01:16:20;25.30;33.20
38020;DHT22;23829;51.350;17.286;2023-04-29T01:18:57;25.00;33.70
38020;DHT22;23829;51.350;17.286;2023-04-29T01:21:31;25.00;33.70
38020;DHT22;23829;51.350;17.286;2023-04-29T01:23:57;25.00;33.60
38020;DHT22;23829;51.350;17.286;2023-04-29T01:26:30;24.70;34.00
38020;DHT22;23829;51.350;17.286;2023-04-29T01:29:43;24.70;34.10
38020;DHT22;23829;51.350;17.286;2023-04-29T01:32:18;24.70;33.90
38020;DHT22;23829;51.350;17.286;2023-04-29T01:40:25;24.60;34.20
38020;DHT22;23829;51.350;17.286;2023-04-29T01:43:06;24.50;34.30
38020;DHT22;23829;51.350;17.286;2023-04-29T01:45:38;24.50;34.30
38020;DHT22;23829;51.350;17.286;2023-04-29T01:48:08;24.40;34.30
38020;DHT22;23829;51.350;17.286;2023-04-29T01:50:35;24.40;34.40
38020;DHT22;23829;51.350;17.286;2023-04-29T01:53:09;24.50;34.30
38020;DHT22;23829;51.350;17.286;2023-04-29T01:55:36;24.30;34.40
38020;DHT22;23829;51.350;17.286;2023-04-29T01:58:15;24.10;34.90
38020;DHT22;23829;51.350;17.286;2023-04-29T02:00:57;24.00;35.00
38020;DHT22;23829;51.350;17.286;2023-04-29T02:03:25;24.00;35.10
38020;DHT22;23829;51.350;17.286;2023-04-29T02:05:55;24.20;35.00
38020;DHT22;23829;51.350;17.286;2023-04-29T02:08:22;24.20;34.80
38020;DHT22;23829;51.350;17.286;2023-04-29T02:10:57;24.30;34.60
38020;DHT22;23829;51.350;17.286;2023-04-29T02:13:33;24.30;34.60
38020;DHT22;23829;51.350;17.286;2023-04-29T02:16:07;24.40;34.60
38020;DHT22;23829;51.350;17.286;2023-04-29T02:18:34;24.10;34.90
38020;DHT22;23829;51.350;17.286;2023-04-29T02:21:01;23.90;35.30
38020;DHT22;23829;51.350;17.286;2023-04-29T02:23:27;23.80;35.60
38020;DHT22;23829;51.350;17.286;2023-04-29T02:25:55;23.90;35.30
38020;DHT22;23829;51.350;17.286;2023-04-29T02:28:23;23.90;35.50
38020;DHT22;23829;51.350;17.286;2023-04-29T02:30:50;23.60;35.80
38020;DHT22;23829;51.350;17.286;2023-04-29T02:33:16;23.60;36.80
38020;DHT22;23829;51.350;17.286;2023-04-29T02:35:46;23.60;36.10
38020;DHT22;23829;51.350;17.286;2023-04-29T02:38:12;23.50;36.30
38020;DHT22;23829;51.350;17.286;2023-04-29T02:40:43;23.50;36.40
38020;DHT22;23829;51.350;17.286;2023-04-29T02:43:10;23.40;36.60
38020;DHT22;23829;51.350;17.286;2023-04-29T02:45:37;23.60;36.40
38020;DHT22;23829;51.350;17.286;2023-04-29T02:48:07;23.90;35.80
38020;DHT22;23829;51.350;17.286;2023-04-29T02:50:34;23.80;35.90
38020;DHT22;23829;51.350;17.286;2023-04-29T02:53:01;23.70;36.20
38020;DHT22;23829;51.350;17.286;2023-04-29T02:55:27;23.70;36.10
38020;DHT22;23829;51.350;17.286;2023-04-29T02:57:57;23.80;36.00
38020;DHT22;23829;51.350;17.286;2023-04-29T03:00:24;23.70;36.30
38020;DHT22;23829;51.350;17.286;2023-04-29T03:02:50;23.30;37.10
38020;DHT22;23829;51.350;17.286;2023-04-29T03:05:17;23.20;37.20
38020;DHT22;23829;51.350;17.286;2023-04-29T03:07:44;23.20;37.20
38020;DHT22;23829;51.350;17.286;2023-04-29T03:10:10;23.00;37.50
38020;DHT22;23829;51.350;17.286;2023-04-29T03:12:38;23.20;37.50
38020;DHT22;23829;51.350;17.286;2023-04-29T03:15:06;23.10;37.60
38020;DHT22;23829;51.350;17.286;2023-04-29T03:17:33;23.10;37.50
38020;DHT22;23829;51.350;17.286;2023-04-29T03:20:00;23.50;37.20
38020;DHT22;23829;51.350;17.286;2023-04-29T03:22:27;23.60;36.80
38020;DHT22;23829;51.350;17.286;2023-04-29T03:24:53;23.80;36.60
38020;DHT22;23829;51.350;17.286;2023-04-29T03:27:20;23.90;36.30
38020;DHT22;23829;51.350;17.286;2023-04-29T03:29:48;24.00;36.10
38020;DHT22;23829;51.350;17.286;2023-04-29T03:32:15;24.00;36.10
38020;DHT22;23829;51.350;17.286;2023-04-29T03:34:42;24.20;35.90
38020;DHT22;23829;51.350;17.286;2023-04-29T03:37:28;24.10;36.00
38020;DHT22;23829;51.350;17.286;2023-04-29T03:40:06;24.10;35.90
38020;DHT22;23829;51.350;17.286;2023-04-29T03:42:33;24.20;35.80
38020;DHT22;23829;51.350;17.286;2023-04-29T03:44:59;24.10;35.90
38020;DHT22;23829;51.350;17.286;2023-04-29T03:47:25;23.90;36.20
38020;DHT22;23829;51.350;17.286;2023-04-29T03:49:52;23.90;36.20
38020;DHT22;23829;51.350;17.286;2023-04-29T03:52:18;23.90;36.40
38020;DHT22;23829;51.350;17.286;2023-04-29T03:54:48;24.00;36.30
38020;DHT22;23829;51.350;17.286;2023-04-29T03:57:15;23.90;36.30
38020;DHT22;23829;51.350;17.286;2023-04-29T03:59:41;23.70;36.90
38020;DHT22;23829;51.350;17.286;2023-04-29T04:02:08;23.80;36.90
38020;DHT22;23829;51.350;17.286;2023-04-29T04:04:34;24.00;36.40
38020;DHT22;23829;51.350;17.286;2023-04-29T04:07:01;23.80;36.80
38020;DHT22;23829;51.350;17.286;2023-04-29T04:09:38;23.80;36.90
38020;DHT22;23829;51.350;17.286;2023-04-29T04:12:05;23.80;37.00
38020;DHT22;23829;51.350;17.286;2023-04-29T04:14:33;24.20;36.50
38020;DHT22;23829;51.350;17.286;2023-04-29T04:16:59;24.20;36.30
38020;DHT22;23829;51.350;17.286;2023-04-29T04:19:26;24.50;35.90
38020;DHT22;23829;51.350;17.286;2023-04-29T04:21:54;24.70;35.60
38020;DHT22;23829;51.350;17.286;2023-04-29T04:24:21;24.60;35.70
38020;DHT22;23829;51.350;17.286;2023-04-29T04:26:48;24.90;35.40
38020;DHT22;23829;51.350;17.286;2023-04-29T04:29:18;24.80;35.30
38020;DHT22;23829;51.350;17.286;2023-04-29T04:31:52;24.80;35.50
38020;DHT22;23829;51.350;17.286;2023-04-29T04:34:19;24.70;35.50
38020;DHT22;23829;51.350;17.286;2023-04-29T04:36:48;24.60;36.50
38020;DHT22;23829;51.350;17.286;2023-04-29T04:39:15;24.30;36.30
38020;DHT22;23829;51.350;17.286;2023-04-29T04:41:41;24.30;36.80
38020;DHT22;23829;51.350;17.286;2023-04-29T04:44:08;24.50;36.20
38020;DHT22;23829;51.350;17.286;2023-04-29T04:47:01;24.40;36.20
38020;DHT22;23829;51.350;17.286;2023-04-29T04:49:41;24.40;36.30
38020;DHT22;23829;51.350;17.286;2023-04-29T04:52:07;24.00;37.20
38020;DHT22;23829;51.350;17.286;2023-04-29T04:54:35;24.10;37.20
38020;DHT22;23829;51.350;17.286;2023-04-29T04:57:08;24.20;37.00
38020;DHT22;23829;51.350;17.286;2023-04-29T04:59:35;24.30;37.10
38020;DHT22;23829;51.350;17.286;2023-04-29T05:02:01;24.50;36.80
38020;DHT22;23829;51.350;17.286;2023-04-29T05:04:28;24.40;36.70
38020;DHT22;23829;51.350;17.286;2023-04-29T05:06:55;24.30;37.00
38020;DHT22;23829;51.350;17.286;2023-04-29T05:09:23;24.20;37.30
38020;DHT22;23829;51.350;17.286;2023-04-29T05:11:49;24.20;37.40
38020;DHT22;23829;51.350;17.286;2023-04-29T05:14:18;24.20;37.50
38020;DHT22;23829;51.350;17.286;2023-04-29T05:16:44;24.20;37.70
38020;DHT22;23829;51.350;17.286;2023-04-29T05:19:12;24.20;37.60
38020;DHT22;23829;51.350;17.286;2023-04-29T05:21:39;24.40;37.40
38020;DHT22;23829;51.350;17.286;2023-04-29T05:24:08;24.60;37.10
38020;DHT22;23829;51.350;17.286;2023-04-29T05:26:35;24.50;37.00
38020;DHT22;23829;51.350;17.286;2023-04-29T05:29:01;24.40;37.30
38020;DHT22;23829;51.350;17.286;2023-04-29T05:31:32;24.40;37.60
38020;DHT22;23829;51.350;17.286;2023-04-29T05:34:02;24.60;37.40
38020;DHT22;23829;51.350;17.286;2023-04-29T05:36:30;24.90;36.90
38020;DHT22;23829;51.350;17.286;2023-04-29T05:38:57;25.30;36.70
38020;DHT22;23829;51.350;17.286;2023-04-29T05:41:24;25.90;36.80
38020;DHT22;23829;51.350;17.286;2023-04-29T05:43:54;26.10;35.80
38020;DHT22;23829;51.350;17.286;2023-04-29T05:46:21;26.10;36.00
38020;DHT22;23829;51.350;17.286;2023-04-29T05:48:49;26.10;36.10
38020;DHT22;23829;51.350;17.286;2023-04-29T05:51:15;26.20;36.00
38020;DHT22;23829;51.350;17.286;2023-04-29T05:53:41;26.50;36.00
38020;DHT22;23829;51.350;17.286;2023-04-29T05:56:08;26.40;35.80
38020;DHT22;23829;51.350;17.286;2023-04-29T05:58:35;26.60;35.50
38020;DHT22;23829;51.350;17.286;2023-04-29T06:01:02;26.50;35.40
38020;DHT22;23829;51.350;17.286;2023-04-29T06:03:30;26.60;35.40
38020;DHT22;23829;51.350;17.286;2023-04-29T06:06:17;26.50;35.50
38020;DHT22;23829;51.350;17.286;2023-04-29T06:09:04;26.60;35.90
38020;DHT22;23829;51.350;17.286;2023-04-29T06:11:32;26.20;36.70
38020;DHT22;23829;51.350;17.286;2023-04-29T06:14:01;26.30;36.70
38020;DHT22;23829;51.350;17.286;2023-04-29T06:16:27;26.20;36.50
38020;DHT22;23829;51.350;17.286;2023-04-29T06:18:54;26.10;36.60
38020;DHT22;23829;51.350;17.286;2023-04-29T06:21:21;26.30;36.40
38020;DHT22;23829;51.350;17.286;2023-04-29T06:23:47;26.50;36.10
38020;DHT22;23829;51.350;17.286;2023-04-29T06:26:16;26.60;35.90
38020;DHT22;23829;51.350;17.286;2023-04-29T06:28:45;26.60;35.80
38020;DHT22;23829;51.350;17.286;2023-04-29T06:31:12;26.70;35.60
38020;DHT22;23829;51.350;17.286;2023-04-29T06:33:39;26.90;35.60
38020;DHT22;23829;51.350;17.286;2023-04-29T06:36:05;26.90;35.40
38020;DHT22;23829;51.350;17.286;2023-04-29T06:38:50;27.00;35.70
38020;DHT22;23829;51.350;17.286;2023-04-29T06:41:35;27.20;35.30
38020;DHT22;23829;51.350;17.286;2023-04-29T06:44:21;27.40;34.90
38020;DHT22;23829;51.350;17.286;2023-04-29T06:46:58;27.00;35.30
38020;DHT22;23829;51.350;17.286;2023-04-29T06:49:45;27.00;35.40
38020;DHT22;23829;51.350;17.286;2023-04-29T06:52:12;27.20;35.50
38020;DHT22;23829;51.350;17.286;2023-04-29T06:54:39;27.60;34.90
38020;DHT22;23829;51.350;17.286;2023-04-29T06:57:05;27.50;35.00
38020;DHT22;23829;51.350;17.286;2023-04-29T06:59:32;27.70;35.00
38020;DHT22;23829;51.350;17.286;2023-04-29T07:01:58;27.90;34.40
38020;DHT22;23829;51.350;17.286;2023-04-29T07:04:24;27.80;34.30
38020;DHT22;23829;51.350;17.286;2023-04-29T07:06:50;28.20;34.20
38020;DHT22;23829;51.350;17.286;2023-04-29T07:09:19;28.50;34.40
38020;DHT22;23829;51.350;17.286;2023-04-29T07:11:45;28.40;34.20
38020;DHT22;23829;51.350;17.286;2023-04-29T07:14:12;28.30;33.80
38020;DHT22;23829;51.350;17.286;2023-04-29T07:16:38;28.30;33.80
38020;DHT22;23829;51.350;17.286;2023-04-29T07:19:09;28.30;34.10
38020;DHT22;23829;51.350;17.286;2023-04-29T07:21:35;28.30;34.10
38020;DHT22;23829;51.350;17.286;2023-04-29T07:24:03;28.30;34.00
38020;DHT22;23829;51.350;17.286;2023-04-29T07:26:29;28.40;34.80
38020;DHT22;23829;51.350;17.286;2023-04-29T07:28:56;28.40;34.20
38020;DHT22;23829;51.350;17.286;2023-04-29T07:31:23;28.60;34.20
38020;DHT22;23829;51.350;17.286;2023-04-29T07:33:50;28.40;33.80
38020;DHT22;23829;51.350;17.286;2023-04-29T07:36:16;28.70;33.60
38020;DHT22;23829;51.350;17.286;2023-04-29T07:38:42;28.70;33.70
38020;DHT22;23829;51.350;17.286;2023-04-29T07:41:09;28.60;33.80
38020;DHT22;23829;51.350;17.286;2023-04-29T07:43:35;28.80;33.60
38020;DHT22;23829;51.350;17.286;2023-04-29T07:46:02;28.90;33.60
38020;DHT22;23829;51.350;17.286;2023-04-29T07:48:28;28.60;33.90
38020;DHT22;23829;51.350;17.286;2023-04-29T07:50:55;28.50;34.10
38020;DHT22;23829;51.350;17.286;2023-04-29T07:53:22;28.30;34.30
38020;DHT22;23829;51.350;17.286;2023-04-29T07:55:50;28.20;34.40
38020;DHT22;23829;51.350;17.286;2023-04-29T07:58:19;28.30;34.40
38020;DHT22;23829;51.350;17.286;2023-04-29T08:00:46;28.50;34.70
38020;DHT22;23829;51.350;17.286;2023-04-29T08:03:13;28.60;34.30
38020;DHT22;23829;51.350;17.286;2023-04-29T08:05:40;28.60;34.20
38020;DHT22;23829;51.350;17.286;2023-04-29T08:08:07;28.40;34.70
38020;DHT22;23829;51.350;17.286;2023-04-29T08:10:37;28.60;34.60
38020;DHT22;23829;51.350;17.286;2023-04-29T08:13:08;28.50;34.40
38020;DHT22;23829;51.350;17.286;2023-04-29T08:15:34;28.60;34.50
38020;DHT22;23829;51.350;17.286;2023-04-29T08:18:01;29.00;33.90
38020;DHT22;23829;51.350;17.286;2023-04-29T08:20:27;29.40;33.60
38020;DHT22;23829;51.350;17.286;2023-04-29T08:22:54;29.40;33.50
38020;DHT22;23829;51.350;17.286;2023-04-29T08:25:20;29.30;33.70
38020;DHT22;23829;51.350;17.286;2023-04-29T08:27:47;29.40;33.50
38020;DHT22;23829;51.350;17.286;2023-04-29T08:30:14;29.60;33.30
38020;DHT22;23829;51.350;17.286;2023-04-29T08:32:40;29.50;33.40
38020;DHT22;23829;51.350;17.286;2023-04-29T08:35:07;29.60;33.50
38020;DHT22;23829;51.350;17.286;2023-04-29T08:37:33;29.60;33.30
38020;DHT22;23829;51.350;17.286;2023-04-29T08:40:00;29.80;33.70
38020;DHT22;23829;51.350;17.286;2023-04-29T08:42:34;29.80;32.90
38020;DHT22;23829;51.350;17.286;2023-04-29T08:45:02;30.10;32.70
38020;DHT22;23829;51.350;17.286;2023-04-29T08:47:30;29.60;33.40
38020;DHT22;23829;51.350;17.286;2023-04-29T08:50:03;29.70;33.00
38020;DHT22;23829;51.350;17.286;2023-04-29T08:52:32;29.90;32.70
38020;DHT22;23829;51.350;17.286;2023-04-29T08:54:59;29.90;32.90
38020;DHT22;23829;51.350;17.286;2023-04-29T08:57:33;30.00;33.20
38020;DHT22;23829;51.350;17.286;2023-04-29T09:00:08;30.40;32.80
38020;DHT22;23829;51.350;17.286;2023-04-29T09:02:44;30.10;32.70
38020;DHT22;23829;51.350;17.286;2023-04-29T09:05:11;30.20;33.10
38020;DHT22;23829;51.350;17.286;2023-04-29T09:07:38;30.20;33.30
38020;DHT22;23829;51.350;17.286;2023-04-29T09:10:05;30.60;32.30
38020;DHT22;23829;51.350;17.286;2023-04-29T09:12:32;30.60;32.10
38020;DHT22;23829;51.350;17.286;2023-04-29T09:14:59;30.10;32.60
38020;DHT22;23829;51.350;17.286;2023-04-29T09:17:46;30.20;33.30
38020;DHT22;23829;51.350;17.286;2023-04-29T09:22:50;30.00;33.20
38020;DHT22;23829;51.350;17.286;2023-04-29T09:25:18;30.00;34.10
38020;DHT22;23829;51.350;17.286;2023-04-29T09:27:44;30.10;33.80
38020;DHT22;23829;51.350;17.286;2023-04-29T09:30:11;30.30;34.10
38020;DHT22;23829;51.350;17.286;2023-04-29T09:32:38;30.40;34.10
38020;DHT22;23829;51.350;17.286;2023-04-29T09:35:24;30.10;35.40
38020;DHT22;23829;51.350;17.286;2023-04-29T09:38:12;30.10;37.00
38020;DHT22;23829;51.350;17.286;2023-04-29T09:40:43;30.10;37.40
38020;DHT22;23829;51.350;17.286;2023-04-29T09:43:14;30.10;37.60
38020;DHT22;23829;51.350;17.286;2023-04-29T09:45:46;30.40;37.80
38020;DHT22;23829;51.350;17.286;2023-04-29T09:48:14;30.40;37.20
38020;DHT22;23829;51.350;17.286;2023-04-29T09:50:42;30.40;38.20
38020;DHT22;23829;51.350;17.286;2023-04-29T09:53:27;30.60;37.20
38020;DHT22;23829;51.350;17.286;2023-04-29T09:55:59;30.40;38.10
38020;DHT22;23829;51.350;17.286;2023-04-29T09:58:31;30.50;37.90
38020;DHT22;23829;51.350;17.286;2023-04-29T10:01:03;30.60;37.80
38020;DHT22;23829;51.350;17.286;2023-04-29T10:03:31;30.30;38.80
38020;DHT22;23829;51.350;17.286;2023-04-29T10:06:00;30.30;38.20
38020;DHT22;23829;51.350;17.286;2023-04-29T10:08:28;30.30;40.00
38020;DHT22;23829;51.350;17.286;2023-04-29T10:11:04;30.40;39.10
38020;DHT22;23829;51.350;17.286;2023-04-29T10:13:30;30.60;38.50
38020;DHT22;23829;51.350;17.286;2023-04-29T10:16:26;30.70;38.00
38020;DHT22;23829;51.350;17.286;2023-04-29T10:18:55;30.90;38.00
38020;DHT22;23829;51.350;17.286;2023-04-29T10:21:29;30.90;38.20
38020;DHT22;23829;51.350;17.286;2023-04-29T10:23:59;31.00;37.20
38020;DHT22;23829;51.350;17.286;2023-04-29T10:26:28;31.10;37.70
38020;DHT22;23829;51.350;17.286;2023-04-29T10:28:55;30.90;38.00
38020;DHT22;23829;51.350;17.286;2023-04-29T10:31:25;31.10;37.30
38020;DHT22;23829;51.350;17.286;2023-04-29T10:33:56;31.40;37.20
38020;DHT22;23829;51.350;17.286;2023-04-29T10:36:30;31.40;37.00
38020;DHT22;23829;51.350;17.286;2023-04-29T10:39:00;31.70;37.10
38020;DHT22;23829;51.350;17.286;2023-04-29T10:41:36;31.70;36.40
38020;DHT22;23829;51.350;17.286;2023-04-29T10:44:03;31.80;35.90
38020;DHT22;23829;51.350;17.286;2023-04-29T10:46:30;32.10;35.90
38020;DHT22;23829;51.350;17.286;2023-04-29T10:49:00;32.20;34.30
38020;DHT22;23829;51.350;17.286;2023-04-29T10:54:06;32.30;35.10
38020;DHT22;23829;51.350;17.286;2023-04-29T10:59:11;32.00;35.10
38020;DHT22;23829;51.350;17.286;2023-04-29T11:01:48;31.90;35.30
38020;DHT22;23829;51.350;17.286;2023-04-29T11:04:16;31.70;35.60
38020;DHT22;23829;51.350;17.286;2023-04-29T11:06:51;32.00;34.50
38020;DHT22;23829;51.350;17.286;2023-04-29T11:14:18;31.80;35.40
38020;DHT22;23829;51.350;17.286;2023-04-29T11:16:57;31.70;35.20
38020;DHT22;23829;51.350;17.286;2023-04-29T11:19:27;31.70;35.50
38020;DHT22;23829;51.350;17.286;2023-04-29T11:24:52;31.40;35.90
38020;DHT22;23829;51.350;17.286;2023-04-29T11:27:20;31.20;35.50
38020;DHT22;23829;51.350;17.286;2023-04-29T11:29:56;31.50;35.20
38020;DHT22;23829;51.350;17.286;2023-04-29T11:32:31;31.90;34.60
38020;DHT22;23829;51.350;17.286;2023-04-29T11:35:15;32.20;34.70
38020;DHT22;23829;51.350;17.286;2023-04-29T11:37:43;32.30;34.20
38020;DHT22;23829;51.350;17.286;2023-04-29T11:40:11;32.50;33.40
38020;DHT22;23829;51.350;17.286;2023-04-29T11:42:44;32.90;31.30
38020;DHT22;23829;51.350;17.286;2023-04-29T11:45:11;33.20;31.00
38020;DHT22;23829;51.350;17.286;2023-04-29T11:47:42;33.10;30.70
38020;DHT22;23829;51.350;17.286;2023-04-29T11:50:09;33.10;31.30
38020;DHT22;23829;51.350;17.286;2023-04-29T11:52:39;32.80;31.60
38020;DHT22;23829;51.350;17.286;2023-04-29T11:55:10;32.70;32.20
38020;DHT22;23829;51.350;17.286;2023-04-29T11:57:39;32.90;31.50
38020;DHT22;23829;51.350;17.286;2023-04-29T12:00:13;33.00;31.40
38020;DHT22;23829;51.350;17.286;2023-04-29T12:02:43;33.10;31.10
38020;DHT22;23829;51.350;17.286;2023-04-29T12:05:10;32.50;32.50
38020;DHT22;23829;51.350;17.286;2023-04-29T12:07:38;32.60;32.80
38020;DHT22;23829;51.350;17.286;2023-04-29T12:10:08;32.30;33.10
38020;DHT22;23829;51.350;17.286;2023-04-29T12:12:39;32.30;32.70
38020;DHT22;23829;51.350;17.286;2023-04-29T12:15:13;32.50;31.90
38020;DHT22;23829;51.350;17.286;2023-04-29T12:17:39;32.80;31.10
38020;DHT22;23829;51.350;17.286;2023-04-29T12:20:07;32.80;31.20
38020;DHT22;23829;51.350;17.286;2023-04-29T12:22:37;32.50;31.40
38020;DHT22;23829;51.350;17.286;2023-04-29T12:25:04;32.60;30.90
38020;DHT22;23829;51.350;17.286;2023-04-29T12:27:31;32.70;31.30
38020;DHT22;23829;51.350;17.286;2023-04-29T12:29:59;32.70;31.40
38020;DHT22;23829;51.350;17.286;2023-04-29T12:32:25;33.10;31.30
38020;DHT22;23829;51.350;17.286;2023-04-29T12:34:52;32.90;31.60
38020;DHT22;23829;51.350;17.286;2023-04-29T12:37:20;32.80;32.30
38020;DHT22;23829;51.350;17.286;2023-04-29T12:39:49;32.80;31.90
38020;DHT22;23829;51.350;17.286;2023-04-29T12:42:16;32.90;32.00
38020;DHT22;23829;51.350;17.286;2023-04-29T12:44:46;33.20;31.80
38020;DHT22;23829;51.350;17.286;2023-04-29T12:47:14;32.90;30.50
38020;DHT22;23829;51.350;17.286;2023-04-29T12:49:45;33.00;31.70
38020;DHT22;23829;51.350;17.286;2023-04-29T12:52:12;33.20;30.80
38020;DHT22;23829;51.350;17.286;2023-04-29T12:54:39;33.20;30.00
38020;DHT22;23829;51.350;17.286;2023-04-29T12:57:11;33.50;29.50
38020;DHT22;23829;51.350;17.286;2023-04-29T12:59:39;33.40;29.70
38020;DHT22;23829;51.350;17.286;2023-04-29T13:02:08;33.20;29.80
38020;DHT22;23829;51.350;17.286;2023-04-29T13:04:35;33.20;30.20
38020;DHT22;23829;51.350;17.286;2023-04-29T13:07:01;33.00;30.30
38020;DHT22;23829;51.350;17.286;2023-04-29T13:09:29;32.80;30.70
38020;DHT22;23829;51.350;17.286;2023-04-29T13:11:56;32.90;30.70
38020;DHT22;23829;51.350;17.286;2023-04-29T13:14:23;32.70;30.90
38020;DHT22;23829;51.350;17.286;2023-04-29T13:16:49;32.80;31.70
38020;DHT22;23829;51.350;17.286;2023-04-29T13:19:15;32.80;31.20
38020;DHT22;23829;51.350;17.286;2023-04-29T13:21:42;32.50;31.30
38020;DHT22;23829;51.350;17.286;2023-04-29T13:24:08;32.60;32.40
38020;DHT22;23829;51.350;17.286;2023-04-29T13:26:35;32.50;31.80
38020;DHT22;23829;51.350;17.286;2023-04-29T13:29:03;32.60;31.70
38020;DHT22;23829;51.350;17.286;2023-04-29T13:31:29;32.30;32.30
38020;DHT22;23829;51.350;17.286;2023-04-29T13:33:56;32.60;32.00
38020;DHT22;23829;51.350;17.286;2023-04-29T13:36:22;32.70;31.80
38020;DHT22;23829;51.350;17.286;2023-04-29T13:38:49;32.60;31.80
38020;DHT22;23829;51.350;17.286;2023-04-29T13:41:15;32.70;30.00
38020;DHT22;23829;51.350;17.286;2023-04-29T13:43:42;32.90;29.90
38020;DHT22;23829;51.350;17.286;2023-04-29T13:46:08;33.00;30.60
38020;DHT22;23829;51.350;17.286;2023-04-29T13:48:35;32.80;32.10
38020;DHT22;23829;51.350;17.286;2023-04-29T13:51:01;32.40;31.70
38020;DHT22;23829;51.350;17.286;2023-04-29T13:53:28;32.40;32.20
38020;DHT22;23829;51.350;17.286;2023-04-29T13:55:54;32.80;31.40
38020;DHT22;23829;51.350;17.286;2023-04-29T13:58:21;32.20;31.50
38020;DHT22;23829;51.350;17.286;2023-04-29T14:00:47;32.20;31.90
38020;DHT22;23829;51.350;17.286;2023-04-29T14:03:14;31.70;32.60
38020;DHT22;23829;51.350;17.286;2023-04-29T14:05:40;31.50;33.50
38020;DHT22;23829;51.350;17.286;2023-04-29T14:08:07;31.40;33.50
38020;DHT22;23829;51.350;17.286;2023-04-29T14:10:33;31.40;33.60
38020;DHT22;23829;51.350;17.286;2023-04-29T14:13:00;31.30;34.10
38020;DHT22;23829;51.350;17.286;2023-04-29T14:15:27;31.00;36.00
38020;DHT22;23829;51.350;17.286;2023-04-29T14:17:53;31.00;36.70
38020;DHT22;23829;51.350;17.286;2023-04-29T14:20:20;31.20;38.30
38020;DHT22;23829;51.350;17.286;2023-04-29T14:22:46;31.40;37.70
38020;DHT22;23829;51.350;17.286;2023-04-29T14:25:14;31.50;36.80
38020;DHT22;23829;51.350;17.286;2023-04-29T14:27:40;31.70;37.20
38020;DHT22;23829;51.350;17.286;2023-04-29T14:30:07;31.70;36.40
38020;DHT22;23829;51.350;17.286;2023-04-29T14:32:34;31.40;36.70
38020;DHT22;23829;51.350;17.286;2023-04-29T14:35:00;31.30;36.90
38020;DHT22;23829;51.350;17.286;2023-04-29T14:37:27;31.30;37.00
38020;DHT22;23829;51.350;17.286;2023-04-29T14:39:53;31.10;36.90
38020;DHT22;23829;51.350;17.286;2023-04-29T14:42:20;30.70;37.90
38020;DHT22;23829;51.350;17.286;2023-04-29T14:44:46;30.30;38.80
38020;DHT22;23829;51.350;17.286;2023-04-29T14:47:13;29.90;39.70
38020;DHT22;23829;51.350;17.286;2023-04-29T14:49:39;29.90;40.10
38020;DHT22;23829;51.350;17.286;2023-04-29T14:52:06;29.90;40.10
38020;DHT22;23829;51.350;17.286;2023-04-29T14:54:32;29.90;39.50
38020;DHT22;23829;51.350;17.286;2023-04-29T14:56:59;29.70;39.10
38020;DHT22;23829;51.350;17.286;2023-04-29T14:59:25;29.60;39.70
38020;DHT22;23829;51.350;17.286;2023-04-29T15:01:54;29.60;40.10
38020;DHT22;23829;51.350;17.286;2023-04-29T15:04:21;29.80;39.80
38020;DHT22;23829;51.350;17.286;2023-04-29T15:06:48;29.90;39.60
38020;DHT22;23829;51.350;17.286;2023-04-29T15:09:15;29.80;39.70
38020;DHT22;23829;51.350;17.286;2023-04-29T15:11:42;29.90;40.00
38020;DHT22;23829;51.350;17.286;2023-04-29T15:14:08;29.70;40.60
38020;DHT22;23829;51.350;17.286;2023-04-29T15:16:34;29.80;40.40
38020;DHT22;23829;51.350;17.286;2023-04-29T15:19:01;29.90;40.50
38020;DHT22;23829;51.350;17.286;2023-04-29T15:21:27;30.00;40.00
38020;DHT22;23829;51.350;17.286;2023-04-29T15:23:55;30.20;40.20
38020;DHT22;23829;51.350;17.286;2023-04-29T15:26:21;30.30;40.60
38020;DHT22;23829;51.350;17.286;2023-04-29T15:28:48;30.40;39.80
38020;DHT22;23829;51.350;17.286;2023-04-29T15:31:14;30.40;39.50
38020;DHT22;23829;51.350;17.286;2023-04-29T15:33:41;30.30;39.50
38020;DHT22;23829;51.350;17.286;2023-04-29T15:36:07;30.40;39.70
38020;DHT22;23829;51.350;17.286;2023-04-29T15:38:34;30.60;40.30
38020;DHT22;23829;51.350;17.286;2023-04-29T15:41:01;30.80;39.30
38020;DHT22;23829;51.350;17.286;2023-04-29T15:43:29;30.90;39.90
38020;DHT22;23829;51.350;17.286;2023-04-29T15:45:57;30.90;39.50
38020;DHT22;23829;51.350;17.286;2023-04-29T15:48:23;30.90;39.40